createdAt,value
2022-09-25T00:01:57.092Z,23.97
2022-09-25T00:06:59.725Z,23.98
2022-09-25T00:12:03.858Z,23.97
2022-09-25T00:17:06.502Z,23.98
2022-09-25T00:22:09.119Z,23.94
2022-09-25T00:27:13.153Z,23.96
2022-09-25T00:32:16.127Z,23.93
2022-09-25T00:37:18.718Z,23.91
2022-09-25T00:42:23.826Z,23.88
2022-09-25T00:47:31.803Z,23.87
2022-09-25T00:52:34.562Z,23.82
2022-09-25T00:57:41.688Z,23.78
2022-09-25T01:02:48.173Z,23.74
2022-09-25T01:07:52.921Z,23.71
2022-09-25T01:12:58.885Z,23.65
2022-09-25T01:18:11.927Z,23.64
2022-09-25T01:23:27.518Z,23.58
2022-09-25T01:28:56.777Z,23.55
2022-09-25T01:34:04.839Z,23.52
2022-09-25T01:39:17.743Z,23.46
2022-09-25T01:44:28.739Z,23.42
2022-09-25T01:49:36.278Z,23.40
2022-09-25T01:54:44.695Z,23.37
2022-09-25T01:59:55.236Z,23.32
2022-09-25T02:05:02.315Z,23.30
2022-09-25T02:10:09.879Z,23.27
2022-09-25T02:15:20.218Z,23.25
2022-09-25T02:20:34.073Z,23.20
2022-09-25T02:25:41.415Z,23.18
2022-09-25T02:30:48.518Z,23.16
2022-09-25T02:35:51.221Z,23.11
2022-09-25T02:40:58.951Z,23.07
2022-09-25T02:46:11.756Z,23.03
2022-09-25T02:51:26.939Z,23.02
2022-09-25T02:56:33.652Z,22.98
2022-09-25T03:01:41.770Z,22.93
2022-09-25T03:06:45.232Z,22.92
2022-09-25T03:11:47.901Z,22.87
2022-09-25T03:16:56.193Z,22.84
2022-09-25T03:21:58.944Z,22.80
2022-09-25T03:27:01.600Z,22.77
2022-09-25T03:32:05.559Z,22.75
2022-09-25T03:37:08.206Z,22.71
2022-09-25T03:42:10.770Z,22.68
2022-09-25T03:47:14.746Z,22.65
2022-09-25T03:52:17.450Z,22.64
2022-09-25T03:57:20.214Z,22.61
2022-09-25T04:02:24.233Z,22.59
2022-09-25T04:07:27.369Z,22.57
2022-09-25T04:12:29.972Z,22.54
2022-09-25T04:17:33.896Z,22.51
2022-09-25T04:22:36.524Z,22.50
2022-09-25T04:27:39.306Z,22.46
2022-09-25T04:33:00.992Z,22.43
2022-09-25T04:38:03.721Z,22.41
2022-09-25T04:43:07.567Z,22.40
2022-09-25T04:48:11.550Z,22.38
2022-09-25T04:53:14.296Z,22.36
2022-09-25T04:58:17.021Z,22.36
2022-09-25T05:03:21.066Z,22.33
2022-09-25T05:08:24.219Z,22.32
2022-09-25T05:13:28.035Z,22.29
2022-09-25T05:18:32.038Z,22.27
2022-09-25T05:23:34.634Z,22.25
2022-09-25T05:28:37.263Z,22.25
2022-09-25T05:33:41.347Z,22.24
2022-09-25T05:38:43.920Z,22.22
2022-09-25T05:43:47.704Z,22.20
2022-09-25T05:48:51.706Z,22.17
2022-09-25T05:58:58.520Z,22.14
2022-09-25T06:04:03.024Z,22.13
2022-09-25T06:09:05.788Z,22.12
2022-09-25T06:14:08.649Z,22.11
2022-09-25T06:19:12.590Z,22.10
2022-09-25T06:24:15.247Z,22.09
2022-09-25T06:29:17.835Z,22.09
2022-09-25T06:34:23.018Z,22.09
2022-09-25T06:39:25.748Z,22.09
2022-09-25T06:44:28.382Z,22.08
2022-09-25T06:49:32.304Z,22.07
2022-09-25T06:54:34.902Z,22.07
2022-09-25T06:59:37.533Z,22.06
2022-09-25T07:04:41.579Z,22.07
2022-09-25T07:09:44.172Z,22.07
2022-09-25T07:14:47.528Z,22.07
2022-09-25T07:19:51.522Z,22.07
2022-09-25T07:24:54.190Z,22.04
2022-09-25T07:29:56.824Z,22.09
2022-09-25T07:35:01.508Z,22.10
2022-09-25T07:40:04.240Z,21.89
2022-09-25T07:45:07.852Z,21.13
2022-09-25T07:50:15.398Z,20.81
2022-09-25T07:55:18.851Z,20.89
2022-09-25T08:00:21.492Z,21.18
2022-09-25T08:05:25.690Z,21.33
2022-09-25T08:10:28.341Z,21.40
2022-09-25T08:15:31.187Z,21.47
2022-09-25T08:20:39.735Z,21.52
2022-09-25T08:25:42.392Z,21.57
2022-09-25T08:30:45.096Z,21.63
2022-09-25T08:35:57.154Z,21.66
2022-09-25T08:41:04.919Z,21.72
2022-09-25T08:46:38.178Z,21.75
2022-09-25T08:51:46.951Z,21.78
2022-09-25T08:56:51.583Z,21.81
2022-09-25T09:01:58.512Z,21.83
2022-09-25T09:07:26.343Z,21.85
2022-09-25T09:12:37.314Z,21.87
2022-09-25T09:17:43.468Z,21.89
2022-09-25T09:22:52.700Z,21.92
2022-09-25T09:28:13.331Z,21.93
2022-09-25T09:33:29.390Z,21.94
2022-09-25T09:38:44.319Z,21.96
2022-09-25T09:44:01.854Z,21.99
2022-09-25T09:49:14.830Z,22.00
2022-09-25T09:54:27.527Z,22.03
2022-09-25T09:59:41.026Z,22.05
2022-09-25T10:04:44.999Z,22.08
2022-09-25T10:09:50.173Z,22.11
2022-09-25T10:14:53.199Z,22.13
2022-09-25T10:20:00.787Z,22.16
2022-09-25T10:25:06.475Z,22.19
2022-09-25T10:30:21.666Z,22.24
2022-09-25T10:35:29.332Z,22.27
2022-09-25T10:40:37.957Z,22.31
2022-09-25T10:45:41.590Z,22.38
2022-09-25T10:50:44.834Z,22.40
2022-09-25T10:55:54.676Z,22.46
2022-09-25T11:00:59.599Z,22.52
2022-09-25T11:06:05.254Z,22.53
2022-09-25T11:11:10.482Z,22.38
2022-09-25T11:16:13.158Z,22.24
2022-09-25T11:21:22.300Z,22.16
2022-09-25T11:26:32.267Z,22.10
2022-09-25T11:31:39.606Z,22.23
2022-09-25T11:36:46.206Z,22.20
2022-09-25T11:41:56.769Z,22.18
2022-09-25T11:47:05.237Z,22.10
2022-09-25T11:52:22.755Z,22.20
2022-09-25T11:57:35.274Z,22.12
2022-09-25T12:03:03.464Z,21.96
2022-09-25T12:08:19.144Z,21.82
2022-09-25T12:13:32.159Z,21.88
2022-09-25T12:18:50.234Z,21.67
2022-09-25T12:24:00.755Z,21.78
2022-09-25T12:29:25.985Z,21.91
2022-09-25T12:34:45.271Z,21.89
2022-09-25T12:39:52.885Z,21.99
2022-09-25T12:45:00.780Z,22.09
2022-09-25T12:50:09.162Z,22.24
2022-09-25T12:55:19.079Z,22.37
2022-09-25T13:00:25.785Z,22.55
2022-09-25T13:05:35.023Z,22.71
2022-09-25T13:10:40.785Z,22.89
2022-09-25T13:16:11.137Z,22.97
2022-09-25T13:21:27.343Z,23.02
2022-09-25T13:26:32.256Z,23.05
2022-09-25T13:31:41.219Z,23.10
2022-09-25T13:36:49.920Z,23.21
2022-09-25T13:41:56.305Z,23.33
2022-09-25T13:47:32.129Z,23.39
2022-09-25T13:53:15.593Z,23.48
2022-09-25T13:58:18.932Z,23.62
2022-09-25T14:03:32.197Z,23.54
2022-09-25T14:08:41.104Z,23.48
2022-09-25T14:13:46.310Z,23.44
2022-09-25T14:18:54.830Z,23.47
2022-09-25T14:24:15.893Z,23.47
2022-09-25T14:29:23.080Z,23.46
2022-09-25T14:34:48.888Z,23.41
2022-09-25T14:40:05.124Z,23.35
2022-09-25T14:45:45.815Z,23.42
2022-09-25T14:50:53.188Z,23.49
2022-09-25T14:56:01.595Z,23.71
2022-09-25T15:01:13.764Z,23.76
2022-09-25T15:06:26.151Z,23.93
2022-09-25T15:11:40.851Z,23.89
2022-09-25T15:17:02.048Z,23.81
2022-09-25T15:22:10.976Z,23.77
2022-09-25T15:27:16.986Z,23.71
2022-09-25T15:32:22.861Z,23.68
2022-09-25T15:37:29.285Z,23.66
2022-09-25T15:42:34.006Z,23.62
2022-09-25T15:47:54.578Z,23.62
2022-09-25T15:53:00.191Z,23.59
2022-09-25T15:58:13.908Z,23.59
2022-09-25T16:03:39.054Z,23.57
2022-09-25T16:08:41.994Z,23.53
2022-09-25T16:13:48.497Z,23.52
2022-09-25T16:18:54.310Z,23.51
2022-09-25T16:24:00.510Z,23.43
2022-09-25T16:29:14.734Z,23.40
2022-09-25T16:34:23.839Z,23.42
2022-09-25T16:39:29.705Z,23.40
2022-09-25T16:44:45.044Z,23.36
2022-09-25T16:49:48.773Z,23.30
2022-09-25T16:54:54.153Z,23.28
2022-09-25T16:59:59.032Z,23.23
2022-09-25T17:05:03.528Z,23.22
2022-09-25T17:10:07.076Z,23.20
2022-09-25T17:15:17.056Z,23.16
2022-09-25T17:20:19.745Z,23.11
2022-09-25T17:25:29.799Z,23.08
2022-09-25T17:30:34.079Z,23.08
2022-09-25T17:35:41.332Z,23.08
2022-09-25T17:40:46.200Z,23.09
2022-09-25T17:45:52.772Z,23.06
2022-09-25T17:50:57.568Z,23.10
2022-09-25T17:56:01.712Z,23.08
2022-09-25T18:01:13.920Z,23.08
2022-09-25T18:06:16.736Z,23.07
2022-09-25T18:11:19.322Z,23.08
2022-09-25T18:16:28.464Z,23.13
2022-09-25T18:21:48.781Z,23.15
2022-09-25T18:26:54.420Z,23.22
2022-09-25T18:31:59.079Z,23.28
2022-09-25T18:37:01.711Z,23.34
2022-09-25T18:42:04.799Z,23.42
2022-09-25T18:47:09.013Z,23.46
2022-09-25T18:52:11.699Z,23.52
2022-09-25T18:57:15.128Z,23.58
2022-09-25T19:02:21.450Z,23.63
2022-09-25T19:07:24.828Z,23.68
2022-09-25T19:12:27.441Z,23.71
2022-09-25T19:17:32.007Z,23.77
2022-09-25T19:22:34.561Z,23.81
2022-09-25T19:27:37.122Z,23.86
2022-09-25T19:32:41.165Z,23.86
2022-09-25T19:37:43.828Z,23.87
2022-09-25T19:42:46.927Z,23.93
2022-09-25T19:47:51.025Z,23.93
2022-09-25T19:52:54.640Z,23.97
2022-09-25T19:57:57.248Z,24.05
2022-09-25T20:03:01.307Z,24.06
2022-09-25T20:08:04.543Z,24.06
2022-09-25T20:13:07.258Z,24.10
2022-09-25T20:18:11.195Z,24.11
2022-09-25T20:23:13.793Z,24.11
2022-09-25T20:28:16.335Z,24.17
2022-09-25T20:33:20.263Z,24.20
2022-09-25T20:38:22.858Z,24.23
2022-09-25T20:43:25.572Z,24.28
2022-09-25T20:48:30.939Z,24.25
2022-09-25T20:53:33.975Z,24.26
2022-09-25T20:58:37.805Z,24.27
2022-09-25T21:03:45.143Z,24.31
2022-09-25T21:08:48.088Z,24.28
2022-09-25T21:13:52.295Z,24.34
2022-09-25T21:18:58.209Z,24.36
2022-09-25T21:24:02.169Z,24.31
2022-09-25T21:29:05.805Z,24.31
2022-09-25T21:34:14.255Z,24.34
2022-09-25T21:39:17.041Z,24.35
2022-09-25T21:44:24.102Z,24.35
2022-09-25T21:49:28.054Z,24.38
2022-09-25T21:54:31.167Z,24.39
2022-09-25T21:59:33.827Z,24.41
2022-09-25T22:04:37.880Z,24.38
2022-09-25T22:09:40.513Z,24.38
2022-09-25T22:14:43.260Z,24.34
2022-09-25T22:19:47.170Z,24.28
2022-09-25T22:24:49.752Z,24.26
2022-09-25T22:29:52.367Z,24.22
2022-09-25T22:34:56.330Z,24.21
2022-09-25T22:39:58.900Z,24.17
2022-09-25T22:45:01.512Z,24.17
2022-09-25T22:50:06.431Z,24.14
2022-09-25T22:55:09.648Z,24.09
2022-09-25T23:00:13.219Z,24.08
2022-09-25T23:05:17.977Z,23.86
2022-09-25T23:10:20.771Z,23.81
2022-09-25T23:15:23.477Z,23.79
2022-09-25T23:20:27.567Z,23.81
2022-09-25T23:25:30.472Z,23.80
2022-09-25T23:30:33.728Z,23.82
2022-09-25T23:35:37.666Z,23.81
2022-09-25T23:40:40.427Z,23.81
2022-09-25T23:45:43.079Z,23.84
2022-09-25T23:50:49.638Z,23.83
2022-09-25T23:55:52.285Z,23.84
